createdAt,value
2023-03-19T00:01:46.392Z,100998.16
2023-03-19T00:03:49.404Z,100994.19
2023-03-19T00:05:53.899Z,101001.22
2023-03-19T00:07:57.157Z,100996.03
2023-03-19T00:09:59.879Z,100994.56
2023-03-19T00:12:02.721Z,100994.72
2023-03-19T00:14:06.403Z,100995.38
2023-03-19T00:16:09.270Z,100996.41
2023-03-19T00:18:12.404Z,100999.09
2023-03-19T00:20:15.733Z,100982.81
2023-03-19T00:22:18.856Z,100989.03
2023-03-19T00:24:21.544Z,100990.50
2023-03-19T00:26:24.286Z,100991.88
2023-03-19T00:28:27.523Z,100988.00
2023-03-19T00:30:30.262Z,100994.56
2023-03-19T00:32:34.352Z,100981.06
2023-03-19T00:34:37.164Z,100986.03
2023-03-19T00:36:40.220Z,100972.63
2023-03-19T00:38:44.068Z,100985.03
2023-03-19T00:40:47.980Z,100971.81
2023-03-19T00:42:51.066Z,100981.53
2023-03-19T00:44:53.797Z,100981.34
2023-03-19T00:46:56.560Z,100990.03
2023-03-19T00:48:59.355Z,100977.38
2023-03-19T00:51:07.143Z,100985.22
2023-03-19T00:53:10.312Z,100979.56
2023-03-19T00:55:13.128Z,100997.94
2023-03-19T00:57:16.124Z,100987.78
2023-03-19T00:59:18.930Z,100997.38
2023-03-19T01:01:21.836Z,100998.03
2023-03-19T01:03:24.524Z,100995.16
2023-03-19T01:05:27.356Z,100993.50
2023-03-19T01:07:29.844Z,100996.84
2023-03-19T01:09:32.981Z,100994.00
2023-03-19T01:11:36.052Z,101000.34
2023-03-19T01:13:38.863Z,100998.50
2023-03-19T01:15:43.088Z,101000.53
2023-03-19T01:17:45.993Z,100998.22
2023-03-19T01:19:51.056Z,101003.94
2023-03-19T01:21:53.652Z,100997.28
2023-03-19T01:23:57.245Z,101001.81
2023-03-19T01:25:59.735Z,100998.31
2023-03-19T01:28:03.207Z,101000.31
2023-03-19T01:30:07.747Z,100996.34
2023-03-19T01:32:10.879Z,100995.69
2023-03-19T01:34:13.489Z,100993.19
2023-03-19T01:36:16.053Z,100994.38
2023-03-19T01:38:18.750Z,100994.56
2023-03-19T01:40:21.280Z,100990.84
2023-03-19T01:42:23.880Z,100994.91
2023-03-19T01:44:35.800Z,100996.75
2023-03-19T01:46:39.637Z,100992.22
2023-03-19T01:48:44.638Z,100993.91
2023-03-19T01:50:50.472Z,100989.00
2023-03-19T01:52:53.053Z,100993.53
2023-03-19T01:54:57.484Z,100993.19
2023-03-19T01:57:05.919Z,100986.53
2023-03-19T01:59:14.133Z,100985.88
2023-03-19T02:01:17.141Z,100992.72
2023-03-19T02:03:19.648Z,100991.22
2023-03-19T02:05:26.100Z,100989.91
2023-03-19T02:07:35.038Z,100985.91
2023-03-19T02:09:37.627Z,100985.63
2023-03-19T02:11:40.545Z,100985.34
2023-03-19T02:13:43.832Z,100983.19
2023-03-19T02:15:46.534Z,100991.75
2023-03-19T02:17:49.465Z,100986.94
2023-03-19T02:20:11.166Z,100980.09
2023-03-19T02:22:16.875Z,100978.81
2023-03-19T02:24:29.116Z,100980.81
2023-03-19T02:26:32.113Z,100975.47
2023-03-19T02:28:37.849Z,100978.72
2023-03-19T02:30:41.302Z,100973.91
2023-03-19T02:32:44.771Z,100978.91
2023-03-19T02:34:48.751Z,100980.31
2023-03-19T02:36:55.984Z,100976.97
2023-03-19T02:39:02.789Z,100968.44
2023-03-19T02:41:08.829Z,100968.28
2023-03-19T02:43:11.523Z,100970.13
2023-03-19T02:45:15.014Z,100971.31
2023-03-19T02:47:18.250Z,100959.59
2023-03-19T02:49:20.743Z,100973.78
2023-03-19T02:51:23.539Z,100977.50
2023-03-19T02:53:26.280Z,100964.28
2023-03-19T02:55:28.868Z,100965.47
2023-03-19T02:57:31.419Z,100971.66
2023-03-19T02:59:34.379Z,100965.63
2023-03-19T03:01:37.684Z,100963.97
2023-03-19T03:03:40.228Z,100964.81
2023-03-19T03:05:42.820Z,100963.97
2023-03-19T03:07:45.345Z,100965.00
2023-03-19T03:09:48.066Z,100952.97
2023-03-19T03:11:51.171Z,100960.94
2023-03-19T03:13:53.608Z,100962.25
2023-03-19T03:15:56.268Z,100953.41
2023-03-19T03:17:58.908Z,100945.19
2023-03-19T03:20:01.445Z,100947.16
2023-03-19T03:22:05.772Z,100953.31
2023-03-19T03:24:09.547Z,100944.09
2023-03-19T03:26:12.412Z,100951.41
2023-03-19T03:28:14.879Z,100948.38
2023-03-19T03:30:17.552Z,100945.50
2023-03-19T03:32:20.023Z,100941.44
2023-03-19T03:34:22.515Z,100935.66
2023-03-19T03:36:25.649Z,100947.75
2023-03-19T03:38:32.716Z,100953.59
2023-03-19T03:40:36.861Z,100944.53
2023-03-19T03:42:39.408Z,100945.00
2023-03-19T03:44:42.340Z,100934.31
2023-03-19T03:46:44.856Z,100937.09
2023-03-19T03:48:49.469Z,100934.88
2023-03-19T03:50:52.473Z,100933.69
2023-03-19T03:52:54.986Z,100932.31
2023-03-19T03:54:58.658Z,100938.31
2023-03-19T03:57:03.514Z,100935.09
2023-03-19T03:59:06.289Z,100934.72
2023-03-19T04:01:15.283Z,100933.16
2023-03-19T04:03:18.473Z,100927.25
2023-03-19T04:05:21.092Z,100935.06
2023-03-19T04:07:23.680Z,100927.28
2023-03-19T04:09:26.565Z,100927.94
2023-03-19T04:11:29.792Z,100926.47
2023-03-19T04:13:36.671Z,100926.75
2023-03-19T04:15:43.059Z,100926.19
2023-03-19T04:17:45.704Z,100919.06
2023-03-19T04:19:48.255Z,100930.88
2023-03-19T04:21:51.018Z,100927.47
2023-03-19T04:23:53.466Z,100922.38
2023-03-19T04:26:04.351Z,100916.06
2023-03-19T04:28:07.123Z,100923.38
2023-03-19T04:30:10.493Z,100920.13
2023-03-19T04:32:13.132Z,100914.84
2023-03-19T04:34:15.678Z,100912.81
2023-03-19T04:36:19.051Z,100922.78
2023-03-19T04:38:22.316Z,100918.69
2023-03-19T04:40:25.394Z,100915.06
2023-03-19T04:42:28.017Z,100920.88
2023-03-19T04:44:31.210Z,100913.09
2023-03-19T04:46:33.743Z,100903.44
2023-03-19T04:48:36.575Z,100905.63
2023-03-19T04:50:40.451Z,100907.09
2023-03-19T04:52:43.014Z,100913.31
2023-03-19T04:54:45.512Z,100912.75
2023-03-19T04:56:48.016Z,100913.16
2023-03-19T04:58:50.571Z,100914.63
2023-03-19T05:00:53.684Z,100909.50
2023-03-19T05:02:56.786Z,100908.13
2023-03-19T05:04:59.307Z,100911.25
2023-03-19T05:07:01.817Z,100903.63
2023-03-19T05:09:05.600Z,100900.13
2023-03-19T05:11:08.166Z,100901.00
2023-03-19T05:13:11.022Z,100898.75
2023-03-19T05:15:13.560Z,100890.09
2023-03-19T05:17:16.117Z,100899.44
2023-03-19T05:19:18.691Z,100892.66
2023-03-19T05:21:21.629Z,100889.78
2023-03-19T05:23:24.247Z,100883.19
2023-03-19T05:25:27.211Z,100896.22
2023-03-19T05:27:30.152Z,100888.56
2023-03-19T05:29:32.833Z,100890.91
2023-03-19T05:31:35.457Z,100891.13
2023-03-19T05:33:38.021Z,100886.56
2023-03-19T05:35:40.716Z,100901.28
2023-03-19T05:37:43.345Z,100898.66
2023-03-19T05:39:45.795Z,100886.66
2023-03-19T05:41:48.346Z,100887.31
2023-03-19T05:43:51.467Z,100885.88
2023-03-19T05:45:54.042Z,100881.34
2023-03-19T05:47:56.914Z,100875.19
2023-03-19T05:49:59.509Z,100880.16
2023-03-19T05:52:01.935Z,100875.84
2023-03-19T05:54:04.541Z,100874.00
2023-03-19T05:56:07.791Z,100872.56
2023-03-19T05:58:10.470Z,100875.28
2023-03-19T06:00:14.036Z,100887.91
2023-03-19T06:02:16.575Z,100881.91
2023-03-19T06:04:19.452Z,100882.75
2023-03-19T06:06:22.929Z,100878.00
2023-03-19T06:08:25.507Z,100878.63
2023-03-19T06:10:28.527Z,100870.34
2023-03-19T06:12:32.477Z,100879.47
2023-03-19T06:14:35.008Z,100876.81
2023-03-19T06:16:37.645Z,100866.25
2023-03-19T06:18:40.589Z,100858.78
2023-03-19T06:20:43.126Z,100867.53
2023-03-19T06:22:45.641Z,100857.38
2023-03-19T06:24:48.225Z,100858.03
2023-03-19T06:26:50.707Z,100860.31
2023-03-19T06:28:54.134Z,100863.66
2023-03-19T06:30:58.018Z,100862.00
2023-03-19T06:33:00.907Z,100853.75
2023-03-19T06:35:03.603Z,100854.97
2023-03-19T06:37:06.345Z,100849.78
2023-03-19T06:39:09.431Z,100850.41
2023-03-19T06:41:12.157Z,100850.63
2023-03-19T06:43:14.786Z,100845.88
2023-03-19T06:45:19.082Z,100841.09
2023-03-19T06:47:21.620Z,100837.97
2023-03-19T06:49:29.292Z,100841.69
2023-03-19T06:51:33.602Z,100828.03
2023-03-19T06:53:36.211Z,100840.06
2023-03-19T06:55:38.974Z,100825.53
2023-03-19T06:57:41.610Z,100825.94
2023-03-19T06:59:44.224Z,100814.53
2023-03-19T07:01:46.993Z,100823.44
2023-03-19T07:03:49.728Z,100813.91
2023-03-19T07:05:52.326Z,100807.66
2023-03-19T07:07:54.878Z,100818.66
2023-03-19T07:09:57.417Z,100815.72
2023-03-19T07:12:00.045Z,100812.81
2023-03-19T07:14:03.130Z,100816.31
2023-03-19T07:16:06.493Z,100813.38
2023-03-19T07:18:09.070Z,100799.50
2023-03-19T07:20:12.297Z,100808.41
2023-03-19T07:22:14.759Z,100805.88
2023-03-19T07:24:17.357Z,100809.56
2023-03-19T07:26:20.243Z,100804.75
2023-03-19T07:28:23.230Z,100807.19
2023-03-19T07:30:26.064Z,100816.13
2023-03-19T07:32:28.628Z,100802.34
2023-03-19T07:34:31.767Z,100799.41
2023-03-19T07:36:34.309Z,100802.66
2023-03-19T07:38:36.834Z,100793.91
2023-03-19T07:40:43.377Z,100802.97
2023-03-19T07:42:48.491Z,100804.19
2023-03-19T07:44:51.069Z,100805.41
2023-03-19T07:46:53.726Z,100804.34
2023-03-19T07:48:56.324Z,100794.97
2023-03-19T07:50:58.976Z,100797.88
2023-03-19T07:53:01.471Z,100784.56
2023-03-19T07:55:04.309Z,100778.06
2023-03-19T07:57:07.093Z,100780.50
2023-03-19T07:59:09.662Z,100779.59
2023-03-19T08:01:12.280Z,100774.84
2023-03-19T08:03:15.021Z,100777.75
2023-03-19T08:05:17.696Z,100774.94
2023-03-19T08:07:20.317Z,100773.19
2023-03-19T08:09:22.806Z,100755.69
2023-03-19T08:11:25.712Z,100767.88
2023-03-19T08:13:28.615Z,100759.66
2023-03-19T08:15:31.291Z,100762.69
2023-03-19T08:17:38.608Z,100759.91
2023-03-19T08:19:41.478Z,100767.03
2023-03-19T08:21:44.058Z,100755.75
2023-03-19T08:23:46.708Z,100764.72
2023-03-19T08:25:51.900Z,100754.72
2023-03-19T08:27:54.589Z,100753.22
2023-03-19T08:30:00.357Z,100748.09
2023-03-19T08:32:03.238Z,100739.63
2023-03-19T08:34:06.287Z,100743.31
2023-03-19T08:36:14.369Z,100737.22
2023-03-19T08:38:17.207Z,100733.22
2023-03-19T08:40:19.982Z,100725.91
2023-03-19T08:42:23.021Z,100720.28
2023-03-19T08:44:25.889Z,100724.41
2023-03-19T08:46:29.501Z,100714.06
2023-03-19T08:48:32.228Z,100711.94
2023-03-19T08:50:34.895Z,100707.13
2023-03-19T08:52:37.869Z,100701.41
2023-03-19T08:54:40.690Z,100694.94
2023-03-19T08:56:43.278Z,100695.66
2023-03-19T08:58:45.938Z,100692.22
2023-03-19T09:00:49.415Z,100690.34
2023-03-19T09:02:51.945Z,100679.88
2023-03-19T09:04:54.756Z,100684.81
2023-03-19T09:06:57.560Z,100672.34
2023-03-19T09:09:00.132Z,100667.75
2023-03-19T09:11:03.116Z,100668.66
2023-03-19T09:13:05.904Z,100660.41
2023-03-19T09:15:08.742Z,100671.63
2023-03-19T09:17:11.774Z,100666.66
2023-03-19T09:19:14.501Z,100660.41
2023-03-19T09:21:17.086Z,100658.66
2023-03-19T09:23:20.945Z,100656.38
2023-03-19T09:25:23.610Z,100647.88
2023-03-19T09:27:26.161Z,100655.91
2023-03-19T09:29:28.918Z,100654.41
2023-03-19T09:31:31.483Z,100655.91
2023-03-19T09:33:34.734Z,100658.03
2023-03-19T09:35:39.878Z,100649.28
2023-03-19T09:37:42.573Z,100642.44
2023-03-19T09:39:45.421Z,100643.53
2023-03-19T09:42:10.071Z,100642.69
2023-03-19T09:44:28.681Z,100640.59
2023-03-19T09:47:02.034Z,100631.09
2023-03-19T09:49:12.378Z,100643.47
2023-03-19T09:51:22.006Z,100631.63
2023-03-19T09:53:45.732Z,100634.41
2023-03-19T09:55:54.392Z,100627.00
2023-03-19T09:57:59.014Z,100632.66
2023-03-19T10:00:01.673Z,100624.41
2023-03-19T10:02:24.956Z,100629.19
2023-03-19T10:04:47.430Z,100624.41
2023-03-19T10:06:57.778Z,100625.41
2023-03-19T10:09:29.094Z,100625.16
2023-03-19T10:11:31.701Z,100626.22
2023-03-19T10:14:14.102Z,100619.66
2023-03-19T10:16:24.481Z,100621.44
2023-03-19T10:18:35.272Z,100616.09
2023-03-19T10:21:10.125Z,100613.66
2023-03-19T10:23:28.700Z,100611.94
2023-03-19T10:25:33.850Z,100612.84
2023-03-19T10:27:38.198Z,100614.88
2023-03-19T10:29:44.759Z,100607.63
2023-03-19T10:31:56.454Z,100616.13
2023-03-19T10:34:08.235Z,100602.69
2023-03-19T10:36:14.711Z,100602.69
2023-03-19T10:38:24.425Z,100594.19
2023-03-19T10:40:36.687Z,100587.25
2023-03-19T10:43:02.275Z,100582.94
2023-03-19T10:45:26.851Z,100590.03
2023-03-19T10:47:29.412Z,100584.16
2023-03-19T10:49:36.236Z,100582.72
2023-03-19T10:51:40.081Z,100580.00
2023-03-19T10:53:42.999Z,100585.72
2023-03-19T10:55:55.449Z,100572.25
2023-03-19T10:58:17.157Z,100581.06
2023-03-19T11:00:22.802Z,100572.94
2023-03-19T11:02:32.013Z,100566.84
2023-03-19T11:04:34.546Z,100558.09
2023-03-19T11:06:39.162Z,100558.06
2023-03-19T11:08:42.036Z,100551.94
2023-03-19T11:10:49.878Z,100557.78
2023-03-19T11:12:57.945Z,100546.97
2023-03-19T11:15:04.043Z,100553.03
2023-03-19T11:17:24.097Z,100534.75
2023-03-19T11:19:29.755Z,100555.59
2023-03-19T11:21:33.081Z,100547.69
2023-03-19T11:23:41.652Z,100552.91
2023-03-19T11:25:53.261Z,100536.97
2023-03-19T11:28:03.931Z,100528.41
2023-03-19T11:30:20.598Z,100537.41
2023-03-19T11:32:52.493Z,100535.44
2023-03-19T11:35:07.669Z,100545.84
2023-03-19T11:37:48.347Z,100549.47
2023-03-19T11:39:57.072Z,100537.84
2023-03-19T11:42:10.781Z,100538.53
2023-03-19T11:44:46.746Z,100532.63
2023-03-19T11:46:57.367Z,100531.31
2023-03-19T11:49:08.779Z,100530.47
2023-03-19T11:51:31.377Z,100520.16
2023-03-19T11:53:41.641Z,100524.34
2023-03-19T11:55:56.667Z,100512.53
2023-03-19T11:58:37.447Z,100509.34
2023-03-19T12:00:47.596Z,100507.53
2023-03-19T12:03:09.735Z,100506.75
2023-03-19T12:05:14.727Z,100496.69
2023-03-19T12:07:40.272Z,100498.06
2023-03-19T12:09:49.615Z,100499.97
2023-03-19T12:12:07.720Z,100480.53
2023-03-19T12:14:19.201Z,100474.25
2023-03-19T12:16:55.991Z,100476.47
2023-03-19T12:19:18.143Z,100459.88
2023-03-19T12:21:29.478Z,100469.63
2023-03-19T12:24:05.383Z,100454.97
2023-03-19T12:26:14.783Z,100455.19
2023-03-19T12:28:30.194Z,100445.69
2023-03-19T12:30:34.942Z,100450.41
2023-03-19T12:32:55.814Z,100451.81
2023-03-19T12:35:06.136Z,100450.44
2023-03-19T12:37:22.672Z,100442.00
2023-03-19T12:39:34.703Z,100446.63
2023-03-19T12:41:42.544Z,100447.47
2023-03-19T12:44:24.490Z,100442.03
2023-03-19T12:46:58.613Z,100441.75
2023-03-19T12:49:10.965Z,100433.03
2023-03-19T12:51:20.589Z,100446.13
2023-03-19T12:53:42.993Z,100449.44
2023-03-19T12:55:53.531Z,100448.88
2023-03-19T12:58:03.946Z,100440.94
2023-03-19T13:00:26.816Z,100439.03
2023-03-19T13:02:48.607Z,100436.59
2023-03-19T13:04:57.624Z,100438.22
2023-03-19T13:07:06.092Z,100434.94
2023-03-19T13:09:33.655Z,100433.31
2023-03-19T13:11:57.666Z,100435.50
2023-03-19T13:14:14.714Z,100427.03
2023-03-19T13:16:36.169Z,100431.88
2023-03-19T13:18:43.465Z,100428.59
2023-03-19T13:20:58.322Z,100422.63
2023-03-19T13:23:04.959Z,100410.91
2023-03-19T13:25:24.142Z,100418.81
2023-03-19T13:27:31.778Z,100416.66
2023-03-19T13:29:36.980Z,100407.31
2023-03-19T13:31:39.603Z,100408.38
2023-03-19T13:34:11.178Z,100413.00
2023-03-19T13:36:15.312Z,100410.84
2023-03-19T13:38:39.750Z,100409.97
2023-03-19T13:40:53.174Z,100398.44
2023-03-19T13:42:58.651Z,100396.78
2023-03-19T13:45:26.559Z,100390.22
2023-03-19T13:47:28.998Z,100387.50
2023-03-19T13:49:34.125Z,100394.63
2023-03-19T13:51:36.781Z,100388.09
2023-03-19T13:53:53.775Z,100388.41
2023-03-19T13:56:00.973Z,100379.63
2023-03-19T13:58:52.076Z,100375.41
2023-03-19T14:00:59.621Z,100362.06
2023-03-19T14:03:02.403Z,100358.28
2023-03-19T14:05:17.129Z,100362.72
2023-03-19T14:07:24.548Z,100355.91
2023-03-19T14:09:42.286Z,100360.34
2023-03-19T14:11:44.888Z,100356.00
2023-03-19T14:13:49.521Z,100351.66
2023-03-19T14:15:53.394Z,100354.66
2023-03-19T14:17:57.750Z,100356.56
2023-03-19T14:20:13.684Z,100354.66
2023-03-19T14:22:16.981Z,100351.09
2023-03-19T14:24:55.786Z,100344.84
2023-03-19T14:27:20.386Z,100344.84
2023-03-19T14:29:27.871Z,100336.31
2023-03-19T14:31:54.666Z,100337.78
2023-03-19T14:34:06.663Z,100331.09
2023-03-19T14:36:12.673Z,100334.47
2023-03-19T14:38:51.545Z,100341.06
2023-03-19T14:40:56.465Z,100336.53
2023-03-19T14:43:14.043Z,100333.38
2023-03-19T14:45:42.186Z,100341.63
2023-03-19T14:48:18.129Z,100335.72
2023-03-19T14:50:50.648Z,100340.94
2023-03-19T14:52:55.903Z,100325.91
2023-03-19T14:55:12.140Z,100319.72
2023-03-19T14:57:21.901Z,100303.91
2023-03-19T14:59:25.020Z,100316.09
2023-03-19T15:01:28.291Z,100321.47
2023-03-19T15:03:37.898Z,100324.88
2023-03-19T15:05:42.524Z,100325.78
2023-03-19T15:07:48.272Z,100321.53
2023-03-19T15:09:56.317Z,100321.06
2023-03-19T15:12:17.575Z,100322.84
2023-03-19T15:14:50.702Z,100314.56
2023-03-19T15:17:27.569Z,100307.09
2023-03-19T15:19:32.384Z,100309.13
2023-03-19T15:21:34.894Z,100301.41
2023-03-19T15:23:39.851Z,100298.59
2023-03-19T15:25:57.092Z,100298.53
2023-03-19T15:28:13.805Z,100301.97
2023-03-19T15:30:28.776Z,100293.09
2023-03-19T15:33:08.988Z,100291.22
2023-03-19T15:35:02.430Z,100299.59
2023-03-19T15:37:14.257Z,100299.34
2023-03-19T15:39:19.031Z,100294.50
2023-03-19T15:41:24.780Z,100301.22
2023-03-19T15:43:27.975Z,100298.38
2023-03-19T15:45:35.732Z,100289.97
2023-03-19T15:47:45.364Z,100292.94
2023-03-19T15:49:59.521Z,100289.50
2023-03-19T15:52:07.363Z,100293.59
2023-03-19T15:54:11.321Z,100286.22
2023-03-19T15:56:17.249Z,100291.41
2023-03-19T15:58:28.061Z,100288.91
2023-03-19T16:00:30.789Z,100293.75
2023-03-19T16:02:34.243Z,100292.13
2023-03-19T16:05:03.544Z,100286.22
2023-03-19T16:07:00.874Z,100278.09
2023-03-19T16:09:32.105Z,100290.63
2023-03-19T16:11:41.380Z,100289.50
2023-03-19T16:13:57.137Z,100279.19
2023-03-19T16:16:06.185Z,100273.78
2023-03-19T16:18:20.508Z,100275.38
2023-03-19T16:20:23.046Z,100270.59
2023-03-19T16:22:33.126Z,100270.75
2023-03-19T16:24:39.166Z,100266.75
2023-03-19T16:26:43.962Z,100260.66
2023-03-19T16:28:59.043Z,100266.94
2023-03-19T16:31:01.957Z,100260.06
2023-03-19T16:33:06.988Z,100255.16
2023-03-19T16:35:15.604Z,100261.50
2023-03-19T16:37:33.103Z,100257.06
2023-03-19T16:39:37.600Z,100252.38
2023-03-19T16:41:41.339Z,100239.06
2023-03-19T16:43:47.573Z,100247.19
2023-03-19T16:45:52.367Z,100249.50
2023-03-19T16:47:57.303Z,100240.06
2023-03-19T16:50:00.114Z,100233.41
2023-03-19T16:52:03.309Z,100240.66
2023-03-19T16:54:06.427Z,100244.97
2023-03-19T16:56:12.967Z,100237.16
2023-03-19T16:58:18.595Z,100241.69
2023-03-19T17:00:22.555Z,100233.41
2023-03-19T17:02:30.583Z,100234.72
2023-03-19T17:04:33.099Z,100222.81
2023-03-19T17:06:35.644Z,100215.00
2023-03-19T17:08:38.200Z,100226.81
2023-03-19T17:10:46.247Z,100211.31
2023-03-19T17:12:52.372Z,100214.97
2023-03-19T17:14:54.880Z,100215.81
2023-03-19T17:16:58.195Z,100204.50
2023-03-19T17:19:00.900Z,100201.06
2023-03-19T17:21:17.689Z,100201.28
2023-03-19T17:23:24.361Z,100204.34
2023-03-19T17:25:27.119Z,100211.75
2023-03-19T17:27:29.870Z,100212.78
2023-03-19T17:29:33.396Z,100199.25
2023-03-19T17:31:35.937Z,100200.25
2023-03-19T17:33:38.533Z,100185.19
2023-03-19T17:35:41.065Z,100184.97
2023-03-19T17:37:44.411Z,100174.28
2023-03-19T17:39:47.272Z,100181.25
2023-03-19T17:41:51.485Z,100182.66
2023-03-19T17:43:53.992Z,100193.97
2023-03-19T17:45:57.690Z,100183.72
2023-03-19T17:48:00.243Z,100169.28
2023-03-19T17:50:02.906Z,100181.44
2023-03-19T17:52:17.564Z,100166.75
2023-03-19T17:54:20.499Z,100181.53
2023-03-19T17:56:26.240Z,100175.09
2023-03-19T17:58:29.347Z,100165.13
2023-03-19T18:00:32.074Z,100167.91
2023-03-19T18:02:36.364Z,100168.56
2023-03-19T18:04:39.543Z,100174.78
2023-03-19T18:06:50.758Z,100168.38
2023-03-19T18:08:53.352Z,100169.44
2023-03-19T18:10:55.965Z,100162.56
2023-03-19T18:13:00.779Z,100174.06
2023-03-19T18:15:04.513Z,100147.28
2023-03-19T18:17:08.374Z,100159.28
2023-03-19T18:19:20.844Z,100162.06
2023-03-19T18:21:23.983Z,100156.06
2023-03-19T18:23:26.704Z,100155.50
2023-03-19T18:25:32.368Z,100162.00
2023-03-19T18:27:35.177Z,100162.00
2023-03-19T18:29:37.661Z,100159.84
2023-03-19T18:31:42.032Z,100156.91
2023-03-19T18:34:06.729Z,100154.22
2023-03-19T18:36:09.414Z,100140.91
2023-03-19T18:38:16.177Z,100140.41
2023-03-19T18:40:25.669Z,100146.91
2023-03-19T18:42:28.308Z,100142.88
2023-03-19T18:44:31.139Z,100145.31
2023-03-19T18:46:35.960Z,100140.75
2023-03-19T18:48:38.538Z,100141.47
2023-03-19T18:50:42.626Z,100145.72
2023-03-19T18:52:47.556Z,100141.13
2023-03-19T18:54:50.476Z,100137.38
2023-03-19T18:56:54.974Z,100136.06
2023-03-19T18:58:59.994Z,100129.50
2023-03-19T19:01:04.595Z,100135.41
2023-03-19T19:03:07.393Z,100127.66
2023-03-19T19:05:16.029Z,100123.09
2023-03-19T19:07:18.784Z,100111.69
2023-03-19T19:09:21.396Z,100125.22
2023-03-19T19:11:23.988Z,100120.28
2023-03-19T19:13:30.453Z,100123.56
2023-03-19T19:15:36.893Z,100127.19
2023-03-19T19:17:41.886Z,100110.69
2023-03-19T19:19:44.916Z,100124.31
2023-03-19T19:21:47.374Z,100107.66
2023-03-19T19:23:49.919Z,100111.09
2023-03-19T19:25:55.297Z,100109.44
2023-03-19T19:28:08.839Z,100108.31
2023-03-19T19:30:22.148Z,100113.66
2023-03-19T19:32:27.554Z,100105.78
2023-03-19T19:34:30.122Z,100105.44
2023-03-19T19:36:32.743Z,100110.84
2023-03-19T19:38:35.439Z,100111.44
2023-03-19T19:40:38.608Z,100112.00
2023-03-19T19:42:41.658Z,100109.31
2023-03-19T19:44:50.946Z,100110.13
2023-03-19T19:46:54.702Z,100108.00
2023-03-19T19:48:58.921Z,100107.75
2023-03-19T19:51:01.462Z,100109.66
2023-03-19T19:53:03.934Z,100110.38
2023-03-19T19:55:07.098Z,100101.25
2023-03-19T19:57:27.189Z,100102.34
2023-03-19T19:59:29.694Z,100109.66
2023-03-19T20:01:32.274Z,100100.94
2023-03-19T20:03:34.990Z,100095.75
2023-03-19T20:05:37.709Z,100097.41
2023-03-19T20:07:40.842Z,100099.94
2023-03-19T20:09:43.363Z,100098.53
2023-03-19T20:11:46.244Z,100091.25
2023-03-19T20:13:53.653Z,100088.53
2023-03-19T20:15:58.259Z,100085.59
2023-03-19T20:18:02.497Z,100084.44
2023-03-19T20:20:14.662Z,100077.16
2023-03-19T20:22:17.576Z,100076.66
2023-03-19T20:24:20.045Z,100068.44
2023-03-19T20:26:24.868Z,100065.00
2023-03-19T20:28:32.606Z,100059.25
2023-03-19T20:30:38.832Z,100071.75
2023-03-19T20:32:41.376Z,100060.81
2023-03-19T20:34:43.882Z,100063.63
2023-03-19T20:36:46.356Z,100062.53
2023-03-19T20:38:48.960Z,100064.66
2023-03-19T20:40:56.691Z,100066.06
2023-03-19T20:43:00.969Z,100068.94
2023-03-19T20:45:03.810Z,100069.44
2023-03-19T20:47:16.185Z,100062.38
2023-03-19T20:49:18.631Z,100074.34
2023-03-19T20:51:24.941Z,100068.13
2023-03-19T20:53:29.371Z,100052.44
2023-03-19T20:55:34.920Z,100057.19
2023-03-19T20:57:38.066Z,100056.38
2023-03-19T20:59:44.430Z,100062.28
2023-03-19T21:01:47.101Z,100053.03
2023-03-19T21:03:49.599Z,100051.69
2023-03-19T21:06:03.790Z,100052.03
2023-03-19T21:08:16.385Z,100059.00
2023-03-19T21:10:30.931Z,100062.53
2023-03-19T21:12:36.159Z,100054.00
2023-03-19T21:14:38.778Z,100060.00
2023-03-19T21:16:41.297Z,100065.75
2023-03-19T21:18:44.029Z,100046.44
2023-03-19T21:20:51.109Z,100055.16
2023-03-19T21:22:58.798Z,100058.59
2023-03-19T21:25:16.112Z,100060.16
2023-03-19T21:27:23.087Z,100060.25
2023-03-19T21:29:33.254Z,100045.31
2023-03-19T21:31:36.218Z,100044.56
2023-03-19T21:33:38.850Z,100046.28
2023-03-19T21:35:41.450Z,100052.50
2023-03-19T21:37:45.051Z,100050.31
2023-03-19T21:39:48.018Z,100057.34
2023-03-19T21:41:50.920Z,100056.03
2023-03-19T21:43:56.366Z,100042.50
2023-03-19T21:45:59.132Z,100035.63
2023-03-19T21:48:45.013Z,100036.19
2023-03-19T21:50:47.812Z,100042.19
2023-03-19T21:53:00.554Z,100031.94
2023-03-19T21:55:03.974Z,100030.03
2023-03-19T21:57:09.207Z,100036.19
2023-03-19T21:59:18.105Z,100039.25
2023-03-19T22:01:23.797Z,100031.66
2023-03-19T22:03:26.501Z,100033.81
2023-03-19T22:05:29.288Z,100025.69
2023-03-19T22:07:31.807Z,100030.84
2023-03-19T22:09:34.287Z,100029.47
2023-03-19T22:11:38.344Z,100028.47
2023-03-19T22:13:43.377Z,100017.66
2023-03-19T22:15:45.953Z,100021.69
2023-03-19T22:17:50.073Z,100029.22
2023-03-19T22:19:52.870Z,100027.66
2023-03-19T22:21:55.493Z,100025.50
2023-03-19T22:23:58.045Z,100019.78
2023-03-19T22:26:00.604Z,100019.03
2023-03-19T22:28:28.081Z,100021.41
2023-03-19T22:30:38.982Z,100015.69
2023-03-19T22:32:41.596Z,100015.50
2023-03-19T22:34:44.969Z,100016.00
2023-03-19T22:36:48.480Z,100013.78
2023-03-19T22:38:51.892Z,100015.19
2023-03-19T22:40:56.079Z,100030.03
2023-03-19T22:42:58.708Z,100016.56
2023-03-19T22:45:01.268Z,100011.16
2023-03-19T22:47:05.670Z,100010.34
2023-03-19T22:49:17.051Z,100005.72
2023-03-19T22:51:21.662Z,100010.34
2023-03-19T22:53:27.248Z,100013.03
2023-03-19T22:55:29.782Z,100005.72
2023-03-19T22:57:32.386Z,100011.97
2023-03-19T22:59:34.942Z,100005.50
2023-03-19T23:01:43.431Z,99989.81
2023-03-19T23:03:46.324Z,99990.63
2023-03-19T23:05:52.959Z,99992.75
2023-03-19T23:07:57.517Z,99986.19
2023-03-19T23:10:00.874Z,99986.53
2023-03-19T23:12:04.890Z,99998.00
2023-03-19T23:14:15.260Z,99990.88
2023-03-19T23:16:25.524Z,99998.50
2023-03-19T23:18:32.418Z,99996.28
2023-03-19T23:20:35.033Z,99984.88
2023-03-19T23:22:37.565Z,99997.66
2023-03-19T23:24:40.062Z,99989.56
2023-03-19T23:26:50.626Z,99989.81
2023-03-19T23:28:53.970Z,99987.09
2023-03-19T23:30:57.515Z,99985.97
2023-03-19T23:33:03.306Z,99984.66
2023-03-19T23:35:16.382Z,99979.47
2023-03-19T23:37:18.861Z,99978.41
2023-03-19T23:39:21.373Z,99973.81
2023-03-19T23:41:26.087Z,99980.88
2023-03-19T23:43:29.485Z,99982.50
2023-03-19T23:45:41.789Z,99981.13
2023-03-19T23:47:44.435Z,99986.47
2023-03-19T23:49:47.037Z,99990.50
2023-03-19T23:51:49.629Z,99988.84
2023-03-19T23:53:52.150Z,99992.13
2023-03-19T23:56:01.213Z,99979.66
2023-03-19T23:58:04.091Z,99982.63
